createdAt,value
2022-08-09T00:00:00.950Z,15.26
2022-08-09T00:02:37.182Z,15.24
2022-08-09T00:06:19.834Z,15.16
2022-08-09T00:07:59.947Z,15.18
2022-08-09T00:10:28.233Z,15.13
2022-08-09T00:12:55.123Z,15.21
2022-08-09T00:15:26.364Z,15.16
2022-08-09T00:18:05.675Z,15.24
2022-08-09T00:20:42.354Z,15.24
2022-08-09T00:23:56.599Z,15.31
2022-08-09T00:26:05.259Z,15.26
2022-08-09T00:28:34.464Z,15.26
2022-08-09T00:31:09.164Z,15.22
2022-08-09T00:33:50.905Z,15.27
2022-08-09T00:36:20.306Z,15.28
2022-08-09T00:38:50.960Z,15.29
2022-08-09T00:44:13.946Z,15.23
2022-08-09T00:44:15.219Z,15.24
2022-08-09T00:46:56.854Z,15.19
2022-08-09T00:49:30.297Z,15.18
2022-08-09T00:52:05.004Z,15.21
2022-08-09T00:54:35.978Z,15.14
2022-08-09T00:57:10.143Z,15.13
2022-08-09T00:59:41.230Z,15.10
2022-08-09T01:02:20.221Z,15.01
2022-08-09T01:04:53.433Z,14.98
2022-08-09T01:07:38.126Z,14.94
2022-08-09T01:10:25.849Z,14.94
2022-08-09T01:13:02.178Z,14.90
2022-08-09T01:15:40.828Z,14.85
2022-08-09T01:18:14.208Z,14.83
2022-08-09T01:20:48.020Z,14.74
2022-08-09T01:24:01.841Z,14.74
2022-08-09T01:26:53.589Z,14.68
2022-08-09T01:29:29.095Z,14.69
2022-08-09T01:32:31.113Z,14.70
2022-08-09T01:35:06.990Z,14.67
2022-08-09T01:38:08.375Z,14.70
2022-08-09T01:40:35.640Z,14.69
2022-08-09T01:43:05.275Z,14.82
2022-08-09T01:45:34.392Z,15.07
2022-08-09T01:48:12.765Z,14.93
2022-08-09T01:50:48.047Z,14.85
2022-08-09T01:53:19.147Z,14.88
2022-08-09T01:55:48.448Z,14.79
2022-08-09T01:58:17.443Z,14.81
2022-08-09T02:00:46.293Z,14.77
2022-08-09T02:03:19.503Z,14.74
2022-08-09T02:06:03.528Z,14.74
2022-08-09T02:08:56.831Z,14.71
2022-08-09T02:11:24.862Z,14.63
2022-08-09T02:14:15.005Z,14.62
2022-08-09T02:17:14.513Z,14.62
2022-08-09T02:19:43.738Z,14.54
2022-08-09T02:22:16.948Z,14.54
2022-08-09T02:24:51.838Z,14.51
2022-08-09T02:27:21.197Z,14.47
2022-08-09T02:30:12.250Z,14.52
2022-08-09T02:32:46.119Z,14.53
2022-08-09T02:35:23.084Z,14.51
2022-08-09T02:38:10.024Z,14.55
2022-08-09T02:40:38.494Z,14.48
2022-08-09T02:43:08.772Z,14.41
2022-08-09T02:45:42.756Z,14.49
2022-08-09T02:48:30.733Z,14.43
2022-08-09T02:51:01.711Z,14.33
2022-08-09T02:53:34.639Z,14.36
2022-08-09T02:56:04.007Z,14.36
2022-08-09T02:58:37.493Z,14.30
2022-08-09T03:01:08.173Z,14.29
2022-08-09T03:04:12.305Z,14.26
2022-08-09T03:06:27.677Z,14.27
2022-08-09T03:08:56.109Z,14.23
2022-08-09T03:12:04.141Z,14.18
2022-08-09T03:14:12.800Z,14.17
2022-08-09T03:16:47.583Z,14.13
2022-08-09T03:19:52.282Z,14.14
2022-08-09T03:22:12.513Z,14.12
2022-08-09T03:25:16.159Z,14.19
2022-08-09T03:27:44.619Z,14.23
2022-08-09T03:30:13.480Z,14.13
2022-08-09T03:32:43.145Z,14.09
2022-08-09T03:35:24.195Z,14.03
2022-08-09T03:37:56.465Z,14.03
2022-08-09T03:40:25.806Z,14.02
2022-08-09T03:42:58.199Z,14.03
2022-08-09T03:46:05.222Z,14.03
2022-08-09T03:48:18.773Z,13.98
2022-08-09T03:50:46.705Z,13.97
2022-08-09T03:53:16.889Z,13.98
2022-08-09T03:55:48.311Z,14.04
2022-08-09T03:58:16.881Z,14.08
2022-08-09T04:00:45.271Z,13.96
2022-08-09T04:03:15.300Z,13.95
2022-08-09T04:05:52.152Z,13.96
2022-08-09T04:08:19.112Z,13.97
2022-08-09T04:10:56.157Z,14.02
2022-08-09T04:14:37.484Z,14.01
2022-08-09T04:16:20.030Z,14.02
2022-08-09T04:18:51.287Z,14.05
2022-08-09T04:21:18.363Z,14.00
2022-08-09T04:23:54.201Z,14.03
2022-08-09T04:26:24.791Z,14.10
2022-08-09T04:29:07.858Z,14.17
2022-08-09T04:31:47.188Z,14.09
2022-08-09T04:34:19.058Z,14.02
2022-08-09T04:36:57.700Z,13.99
2022-08-09T04:39:25.534Z,14.00
2022-08-09T04:41:59.805Z,14.09
2022-08-09T04:44:29.424Z,14.00
2022-08-09T04:47:05.783Z,13.88
2022-08-09T04:49:53.381Z,14.00
2022-08-09T04:52:27.535Z,14.12
2022-08-09T04:54:56.037Z,14.24
2022-08-09T04:57:25.084Z,14.29
2022-08-09T04:59:53.560Z,14.29
2022-08-09T05:02:20.347Z,14.31
2022-08-09T05:04:48.599Z,14.31
2022-08-09T05:07:22.286Z,14.40
2022-08-09T05:09:50.400Z,14.46
2022-08-09T05:12:17.260Z,14.43
2022-08-09T05:14:44.042Z,14.42
2022-08-09T05:18:36.869Z,14.48
2022-08-09T05:20:00.040Z,14.55
2022-08-09T05:22:33.162Z,14.76
2022-08-09T05:25:02.497Z,14.81
2022-08-09T05:27:30.361Z,14.88
2022-08-09T05:29:58.056Z,14.90
2022-08-09T05:32:26.267Z,14.95
2022-08-09T05:34:57.149Z,15.01
2022-08-09T05:37:26.269Z,15.08
2022-08-09T05:39:53.515Z,15.19
2022-08-09T05:42:21.620Z,15.29
2022-08-09T05:45:01.962Z,15.37
2022-08-09T05:47:30.261Z,15.46
2022-08-09T05:50:23.401Z,15.69
2022-08-09T05:52:53.488Z,15.77
2022-08-09T05:55:21.654Z,15.97
2022-08-09T05:57:56.129Z,16.15
2022-08-09T06:00:25.935Z,16.21
2022-08-09T06:02:56.898Z,16.18
2022-08-09T06:05:49.936Z,16.30
2022-08-09T06:08:13.408Z,16.28
2022-08-09T06:10:46.156Z,16.37
2022-08-09T06:13:20.397Z,16.45
2022-08-09T06:15:51.539Z,16.47
2022-08-09T06:18:23.759Z,16.47
2022-08-09T06:20:57.919Z,16.53
2022-08-09T06:23:58.050Z,16.78
2022-08-09T06:26:20.123Z,16.80
2022-08-09T06:28:47.469Z,16.88
2022-08-09T06:31:14.291Z,16.84
2022-08-09T06:33:42.161Z,16.96
2022-08-09T06:36:15.788Z,16.95
2022-08-09T06:38:50.414Z,16.97
2022-08-09T06:41:18.905Z,17.05
2022-08-09T06:43:48.141Z,17.16
2022-08-09T06:46:39.981Z,17.17
2022-08-09T06:49:01.792Z,17.12
2022-08-09T06:51:28.875Z,17.11
2022-08-09T06:54:00.652Z,17.21
2022-08-09T06:56:30.554Z,17.33
2022-08-09T07:00:56.360Z,17.35
2022-08-09T07:01:57.835Z,17.56
2022-08-09T07:04:30.620Z,18.04
2022-08-09T07:07:00.373Z,18.16
2022-08-09T07:09:54.552Z,18.08
2022-08-09T07:12:18.561Z,17.96
2022-08-09T07:14:51.180Z,17.91
2022-08-09T07:17:18.940Z,17.73
2022-08-09T07:19:48.105Z,17.76
2022-08-09T07:22:17.989Z,17.88
2022-08-09T07:24:49.306Z,17.97
2022-08-09T07:27:27.207Z,18.04
2022-08-09T07:30:02.281Z,18.21
2022-08-09T07:32:33.636Z,18.30
2022-08-09T07:35:02.709Z,18.30
2022-08-09T07:37:42.944Z,18.37
2022-08-09T07:40:16.957Z,18.50
2022-08-09T07:42:55.977Z,18.74
2022-08-09T07:45:37.573Z,18.63
2022-08-09T07:48:05.909Z,18.68
2022-08-09T07:50:36.359Z,18.75
2022-08-09T07:53:04.615Z,18.81
2022-08-09T07:55:41.240Z,18.98
2022-08-09T07:58:21.611Z,19.07
2022-08-09T08:00:56.103Z,20.16
2022-08-09T08:03:32.656Z,21.05
2022-08-09T08:05:59.469Z,21.64
2022-08-09T08:09:00.004Z,21.86
2022-08-09T08:12:11.273Z,22.52
2022-08-09T08:14:02.910Z,22.16
2022-08-09T08:16:31.887Z,22.50
2022-08-09T08:19:03.083Z,23.17
2022-08-09T08:21:31.348Z,22.91
2022-08-09T08:24:01.217Z,22.60
2022-08-09T08:26:47.410Z,24.21
2022-08-09T08:29:27.386Z,23.73
2022-08-09T08:32:03.152Z,23.74
2022-08-09T08:34:32.010Z,24.21
2022-08-09T08:37:01.556Z,24.23
2022-08-09T08:39:28.546Z,23.77
2022-08-09T08:41:58.958Z,24.04
2022-08-09T08:44:29.533Z,23.65
2022-08-09T08:46:59.620Z,23.58
2022-08-09T08:49:38.360Z,24.09
2022-08-09T08:52:24.442Z,24.67
2022-08-09T08:55:01.380Z,25.16
2022-08-09T08:57:35.429Z,24.53
2022-08-09T09:00:08.205Z,24.74
2022-08-09T09:02:52.593Z,24.79
2022-08-09T09:05:57.520Z,25.14
2022-08-09T09:08:29.951Z,24.82
2022-08-09T09:11:02.001Z,24.47
2022-08-09T09:13:41.766Z,25.08
2022-08-09T09:16:29.757Z,25.12
2022-08-09T09:19:37.688Z,24.83
2022-08-09T09:22:03.723Z,24.16
2022-08-09T09:24:34.825Z,25.52
2022-08-09T09:27:02.878Z,25.77
2022-08-09T09:30:05.358Z,25.97
2022-08-09T09:32:21.024Z,25.57
2022-08-09T09:35:07.691Z,25.17
2022-08-09T09:37:37.579Z,25.20
2022-08-09T09:40:09.363Z,24.88
2022-08-09T09:42:36.393Z,25.89
2022-08-09T09:45:08.341Z,25.55
2022-08-09T09:47:47.709Z,26.43
2022-08-09T09:50:42.043Z,26.39
2022-08-09T09:53:17.544Z,26.65
2022-08-09T09:55:57.677Z,26.25
2022-08-09T09:58:45.332Z,25.83
2022-08-09T10:01:36.734Z,26.05
2022-08-09T10:04:12.800Z,25.52
2022-08-09T10:06:47.079Z,25.20
2022-08-09T10:09:23.397Z,26.27
2022-08-09T10:12:11.779Z,27.93
2022-08-09T10:14:47.759Z,28.02
2022-08-09T10:17:50.829Z,28.58
2022-08-09T10:20:31.887Z,28.89
2022-08-09T10:23:17.134Z,29.63
2022-08-09T10:26:06.487Z,28.77
2022-08-09T10:28:34.383Z,28.81
2022-08-09T10:34:08.782Z,29.66
2022-08-09T10:36:38.493Z,30.10
2022-08-09T10:39:16.188Z,27.20
2022-08-09T10:41:47.928Z,28.10
2022-08-09T10:44:18.481Z,29.59
2022-08-09T10:48:13.364Z,27.49
2022-08-09T10:50:17.593Z,28.92
2022-08-09T10:53:10.972Z,29.50
2022-08-09T10:55:57.982Z,27.35
2022-08-09T10:58:30.907Z,29.54
2022-08-09T11:03:06.987Z,28.17
2022-08-09T11:04:28.274Z,27.52
2022-08-09T11:07:56.896Z,27.86
2022-08-09T11:10:16.709Z,29.39
2022-08-09T11:13:51.254Z,27.10
2022-08-09T11:16:35.156Z,27.94
2022-08-09T11:19:03.034Z,28.85
2022-08-09T11:22:10.165Z,28.73
2022-08-09T11:25:08.094Z,28.36
2022-08-09T11:28:02.820Z,29.03
2022-08-09T11:30:36.205Z,30.09
2022-08-09T11:33:06.009Z,28.41
2022-08-09T11:35:49.088Z,29.03
2022-08-09T11:38:18.878Z,27.59
2022-08-09T11:40:47.742Z,28.04
2022-08-09T11:43:39.263Z,29.79
2022-08-09T11:46:06.737Z,29.75
2022-08-09T11:48:46.125Z,29.20
2022-08-09T11:52:49.359Z,27.77
2022-08-09T11:54:14.030Z,29.57
2022-08-09T11:56:48.258Z,29.66
2022-08-09T11:59:30.708Z,28.71
2022-08-09T12:02:18.187Z,26.78
2022-08-09T12:04:58.102Z,28.16
2022-08-09T12:07:41.217Z,29.24
2022-08-09T12:10:14.377Z,28.77
2022-08-09T12:13:03.704Z,28.74
2022-08-09T12:15:49.122Z,29.64
2022-08-09T12:18:30.089Z,29.88
2022-08-09T12:21:03.211Z,29.10
2022-08-09T12:23:56.254Z,29.48
2022-08-09T12:26:19.501Z,29.90
2022-08-09T12:29:13.650Z,29.14
2022-08-09T12:32:02.199Z,28.80
2022-08-09T12:34:34.827Z,28.06
2022-08-09T12:37:21.393Z,30.00
2022-08-09T12:40:00.339Z,30.41
2022-08-09T12:42:28.243Z,30.81
2022-08-09T12:44:59.470Z,29.34
2022-08-09T12:47:27.987Z,28.07
2022-08-09T12:50:23.705Z,26.98
2022-08-09T12:53:08.065Z,28.21
2022-08-09T12:56:13.814Z,27.99
2022-08-09T12:58:28.270Z,27.50
2022-08-09T13:00:57.830Z,28.15
2022-08-09T13:03:52.602Z,28.91
2022-08-09T13:06:25.223Z,29.20
2022-08-09T13:09:07.627Z,27.20
2022-08-09T13:11:39.507Z,28.70
2022-08-09T13:14:41.065Z,28.38
2022-08-09T13:17:01.039Z,29.25
2022-08-09T13:20:06.547Z,27.65
2022-08-09T13:22:37.084Z,26.87
2022-08-09T13:25:07.619Z,28.45
2022-08-09T13:27:40.063Z,27.79
2022-08-09T13:30:50.573Z,27.80
2022-08-09T13:33:06.679Z,28.60
2022-08-09T13:36:39.107Z,28.10
2022-08-09T13:38:54.224Z,27.39
2022-08-09T13:41:52.252Z,28.09
2022-08-09T13:43:59.225Z,27.32
2022-08-09T13:47:16.612Z,27.83
2022-08-09T13:49:18.172Z,27.30
2022-08-09T13:52:00.535Z,26.57
2022-08-09T13:54:30.374Z,26.90
2022-08-09T13:56:57.323Z,26.96
2022-08-09T13:59:25.903Z,27.60
2022-08-09T14:02:04.870Z,28.01
2022-08-09T14:04:33.412Z,27.82
2022-08-09T14:07:03.655Z,27.32
2022-08-09T14:09:31.674Z,27.74
2022-08-09T14:12:07.073Z,27.54
2022-08-09T14:14:44.030Z,27.58
2022-08-09T14:17:12.142Z,26.25
2022-08-09T14:19:40.876Z,26.18
2022-08-09T14:22:09.151Z,26.76
2022-08-09T14:24:35.962Z,26.57
2022-08-09T14:27:19.846Z,26.67
2022-08-09T14:30:35.287Z,26.92
2022-08-09T14:32:34.807Z,26.78
2022-08-09T14:35:07.635Z,27.07
2022-08-09T14:37:41.347Z,26.68
2022-08-09T14:41:00.731Z,26.60
2022-08-09T14:43:08.599Z,27.03
2022-08-09T14:46:54.414Z,26.39
2022-08-09T14:48:22.348Z,26.45
2022-08-09T14:50:55.122Z,27.10
2022-08-09T14:53:21.982Z,27.31
2022-08-09T14:55:50.626Z,26.62
2022-08-09T14:58:18.366Z,26.48
2022-08-09T15:00:48.338Z,26.55
2022-08-09T15:03:20.374Z,26.49
2022-08-09T15:05:51.278Z,26.52
2022-08-09T15:08:25.546Z,27.07
2022-08-09T15:11:01.372Z,26.77
2022-08-09T15:13:56.663Z,27.42
2022-08-09T15:16:19.805Z,27.64
2022-08-09T15:18:49.187Z,27.49
2022-08-09T15:21:54.979Z,27.74
2022-08-09T15:24:13.938Z,27.80
2022-08-09T15:26:46.765Z,27.97
2022-08-09T15:30:48.818Z,28.24
2022-08-09T15:32:01.385Z,27.60
2022-08-09T15:34:33.000Z,28.53
2022-08-09T15:37:04.276Z,28.91
2022-08-09T15:39:34.600Z,28.69
2022-08-09T15:42:11.060Z,28.90
2022-08-09T15:44:37.933Z,29.05
2022-08-09T15:47:05.907Z,29.05
2022-08-09T15:49:40.979Z,29.26
2022-08-09T15:52:27.692Z,28.29
2022-08-09T15:54:56.332Z,29.41
2022-08-09T15:57:35.853Z,28.75
2022-08-09T16:00:24.663Z,27.33
2022-08-09T16:02:54.638Z,26.37
2022-08-09T16:05:23.486Z,25.09
2022-08-09T16:07:51.183Z,24.25
2022-08-09T16:10:54.743Z,23.42
2022-08-09T16:13:19.008Z,23.17
2022-08-09T16:16:12.230Z,23.09
2022-08-09T16:18:45.328Z,22.87
2022-08-09T16:21:12.476Z,22.88
2022-08-09T16:23:54.910Z,22.93
2022-08-09T16:26:34.901Z,23.00
2022-08-09T16:29:10.687Z,22.86
2022-08-09T16:32:12.642Z,22.61
2022-08-09T16:34:28.946Z,22.43
2022-08-09T16:36:56.390Z,22.42
2022-08-09T16:39:25.756Z,22.31
2022-08-09T16:42:02.473Z,22.35
2022-08-09T16:44:31.785Z,22.39
2022-08-09T16:47:04.170Z,22.00
2022-08-09T16:50:29.162Z,21.76
2022-08-09T16:52:32.870Z,21.80
2022-08-09T16:54:59.823Z,21.75
2022-08-09T16:58:08.088Z,21.57
2022-08-09T17:00:15.960Z,21.54
2022-08-09T17:02:46.361Z,21.53
2022-08-09T17:05:14.401Z,21.48
2022-08-09T17:08:45.245Z,21.25
2022-08-09T17:10:34.423Z,21.17
2022-08-09T17:13:06.247Z,21.24
2022-08-09T17:15:59.238Z,21.14
2022-08-09T17:18:26.941Z,21.16
2022-08-09T17:20:57.098Z,21.14
2022-08-09T17:24:21.363Z,21.11
2022-08-09T17:26:11.026Z,20.98
2022-08-09T17:28:40.777Z,20.93
2022-08-09T17:31:07.705Z,20.94
2022-08-09T17:33:37.622Z,20.93
2022-08-09T17:36:05.499Z,20.86
2022-08-09T17:38:39.474Z,20.82
2022-08-09T17:41:08.085Z,20.84
2022-08-09T17:43:37.451Z,20.80
2022-08-09T17:46:09.624Z,20.74
2022-08-09T17:48:51.909Z,20.74
2022-08-09T17:51:20.090Z,20.70
2022-08-09T17:53:52.115Z,20.68
2022-08-09T17:56:20.844Z,20.72
2022-08-09T17:58:47.958Z,20.66
2022-08-09T18:01:23.147Z,20.69
2022-08-09T18:03:51.370Z,20.58
2022-08-09T18:06:32.326Z,20.55
2022-08-09T18:09:03.154Z,20.60
2022-08-09T18:11:46.991Z,20.54
2022-08-09T18:14:19.943Z,20.52
2022-08-09T18:16:49.128Z,20.55
2022-08-09T18:20:56.206Z,20.52
2022-08-09T18:22:04.183Z,20.51
2022-08-09T18:24:31.237Z,20.24
2022-08-09T18:26:58.138Z,20.04
2022-08-09T18:30:41.445Z,19.93
2022-08-09T18:32:19.107Z,19.90
2022-08-09T18:34:46.079Z,19.77
2022-08-09T18:37:47.395Z,19.81
2022-08-09T18:40:02.322Z,19.67
2022-08-09T18:42:29.628Z,19.54
2022-08-09T18:44:57.064Z,19.41
2022-08-09T18:47:36.991Z,19.32
2022-08-09T18:50:06.097Z,19.28
2022-08-09T18:52:36.107Z,19.24
2022-08-09T18:55:03.178Z,19.17
2022-08-09T18:57:38.632Z,19.08
2022-08-09T19:00:20.421Z,18.99
2022-08-09T19:02:50.998Z,18.91
2022-08-09T19:05:41.446Z,18.90
2022-08-09T19:08:10.573Z,18.86
2022-08-09T19:10:41.096Z,18.84
2022-08-09T19:13:19.279Z,18.72
2022-08-09T19:15:49.929Z,18.57
2022-08-09T19:18:33.216Z,18.57
2022-08-09T19:21:02.563Z,18.51
2022-08-09T19:24:37.051Z,18.41
2022-08-09T19:26:16.499Z,18.40
2022-08-09T19:28:48.839Z,18.37
2022-08-09T19:31:16.810Z,18.28
2022-08-09T19:33:45.135Z,18.25
2022-08-09T19:36:13.395Z,18.28
2022-08-09T19:38:40.635Z,18.24
2022-08-09T19:41:10.218Z,18.22
2022-08-09T19:44:01.498Z,18.22
2022-08-09T19:46:34.227Z,18.08
2022-08-09T19:50:08.599Z,17.99
2022-08-09T19:51:54.921Z,18.09
2022-08-09T19:54:23.131Z,18.08
2022-08-09T19:56:52.055Z,18.10
2022-08-09T19:59:59.665Z,18.03
2022-08-09T20:02:18.325Z,17.96
2022-08-09T20:04:55.159Z,17.98
2022-08-09T20:07:22.779Z,17.90
2022-08-09T20:09:50.075Z,17.93
2022-08-09T20:12:30.041Z,17.90
2022-08-09T20:15:04.730Z,17.86
2022-08-09T20:17:54.721Z,17.85
2022-08-09T20:20:24.632Z,17.93
2022-08-09T20:22:56.499Z,17.91
2022-08-09T20:25:23.661Z,17.85
2022-08-09T20:27:51.108Z,17.83
2022-08-09T20:30:21.694Z,17.81
2022-08-09T20:32:52.208Z,17.81
2022-08-09T20:35:19.657Z,17.86
2022-08-09T20:38:22.020Z,17.78
2022-08-09T20:40:35.419Z,17.68
2022-08-09T20:43:18.693Z,17.54
2022-08-09T20:45:57.745Z,17.59
2022-08-09T20:48:37.047Z,17.53
2022-08-09T20:51:05.268Z,17.53
2022-08-09T20:53:35.283Z,17.57
2022-08-09T20:56:06.290Z,17.54
2022-08-09T20:58:35.457Z,17.54
2022-08-09T21:01:33.327Z,17.45
2022-08-09T21:05:49.870Z,17.46
2022-08-09T21:06:42.753Z,17.48
2022-08-09T21:09:14.065Z,17.47
2022-08-09T21:14:31.300Z,17.48
2022-08-09T21:16:59.462Z,17.42
2022-08-09T21:20:14.550Z,17.44
2022-08-09T21:22:36.115Z,17.37
2022-08-09T21:25:20.817Z,17.36
2022-08-09T21:27:51.889Z,17.40
2022-08-09T21:30:22.492Z,17.35
2022-08-09T21:32:50.452Z,17.54
2022-08-09T21:35:17.455Z,17.51
2022-08-09T21:37:58.578Z,17.46
2022-08-09T21:40:30.628Z,17.41
2022-08-09T21:42:59.886Z,17.27
2022-08-09T21:45:28.070Z,17.20
2022-08-09T21:47:55.528Z,17.25
2022-08-09T21:50:33.834Z,17.29
2022-08-09T21:53:06.213Z,17.31
2022-08-09T21:55:34.640Z,17.35
2022-08-09T21:58:02.565Z,17.37
2022-08-09T22:00:31.735Z,17.32
2022-08-09T22:03:01.958Z,17.35
2022-08-09T22:05:37.720Z,17.37
2022-08-09T22:08:13.810Z,17.34
2022-08-09T22:11:49.453Z,17.27
2022-08-09T22:13:34.306Z,17.22
2022-08-09T22:16:03.717Z,17.14
2022-08-09T22:18:30.895Z,17.17
2022-08-09T22:20:59.800Z,17.20
2022-08-09T22:23:27.219Z,17.19
2022-08-09T22:26:12.672Z,17.21
2022-08-09T22:28:54.279Z,17.22
2022-08-09T22:31:21.231Z,17.22
2022-08-09T22:33:55.678Z,17.22
2022-08-09T22:36:23.613Z,17.23
2022-08-09T22:38:50.659Z,17.17
2022-08-09T22:41:19.477Z,17.07
2022-08-09T22:44:03.365Z,17.12
2022-08-09T22:48:18.482Z,17.18
2022-08-09T22:49:18.966Z,17.06
2022-08-09T22:51:53.542Z,17.04
2022-08-09T22:54:26.998Z,17.12
2022-08-09T22:56:57.051Z,17.17
2022-08-09T22:59:57.215Z,17.10
2022-08-09T23:02:15.762Z,17.17
2022-08-09T23:04:53.309Z,17.08
2022-08-09T23:08:27.792Z,17.03
2022-08-09T23:10:43.693Z,17.02
2022-08-09T23:13:12.850Z,17.03
2022-08-09T23:15:39.968Z,17.08
2022-08-09T23:18:06.988Z,17.11
2022-08-09T23:20:33.834Z,17.10
2022-08-09T23:23:00.676Z,17.07
2022-08-09T23:25:27.758Z,16.97
2022-08-09T23:27:57.439Z,17.01
2022-08-09T23:30:51.624Z,16.88
2022-08-09T23:33:19.470Z,16.93
2022-08-09T23:36:06.954Z,16.89
2022-08-09T23:38:33.082Z,16.85
2022-08-09T23:40:59.900Z,16.93
2022-08-09T23:43:28.129Z,16.83
2022-08-09T23:45:54.966Z,16.89
2022-08-09T23:48:21.819Z,16.95
2022-08-09T23:50:48.766Z,16.71
2022-08-09T23:53:15.679Z,16.98
2022-08-09T23:55:49.507Z,16.92
2022-08-09T23:58:26.170Z,16.86
